• Join FlightAware (Why Join?)
  • Login
  • US Flag 
04:47AM EDT


 

Airport Tracker/Info


-or-


 

Live Flight TrackerFlight Track Log ✈ UAL6129 ✈ 03-Jul-2014 ✈ KORD - KTYS

Flight Track Log - Related Links

Times and Time Zones

All times are in EDT time to prevent confusion due to time zone crossing. See the UAL6129 flight status page for this flight to view local times or setup timezone preferences in your user account.

Time Position Orientation Groundspeed Altitude Reporting Facility
EDT Latitude Longitude Course Direction KTS MPH feet Rate Location/Type
03:45PM 41.9333 -87.9167 166° South 171 197 2,100  Level Chicago TRACON
03:46PM 41.8711 -87.9064 173° South 207 238 4,000 1,980 Climbing Chicago Center
03:48PM 41.7364 -87.8056 151° Southeast 274 315 8,500 1,920 Climbing Chicago Center
03:49PM 41.6633 -87.7511 151° Southeast 301 346 10,100 1,680 Climbing Chicago Center
03:50PM 41.5836 -87.6911 151° Southeast 318 366 12,000 1,860 Climbing Chicago Center
03:51PM 41.3941 -87.5647 166° South  Level FlightAware Approximate
03:51PM 41.4969 -87.6261 151° Southeast 328 377 14,000  Level Chicago Center
03:52PM 41.4089 -87.5706 155° Southeast 353 406 14,700 660 Climbing Chicago Center
03:53PM 41.2961 -87.5497 172° South 380 437 15,400 780 Climbing Chicago Center
03:56PM 41.0139 -87.4831 169° South 399 459 17,700 840 Climbing Indianapolis Center
03:57PM 40.9031 -87.4503 167° South 404 465 18,700 1,020 Climbing Indianapolis Center
03:58PM 40.7664 -87.4178 170° South 414 476 19,900 1,020 Climbing Indianapolis Center
03:59PM 40.6522 -87.3869 168° South 417 480 20,900 960 Climbing Indianapolis Center
04:00PM 40.5372 -87.3556 168° South 419 482 21,900 960 Climbing Indianapolis Center
04:01PM 40.4242 -87.3097 163° South 424 488 22,900 960 Climbing Indianapolis Center
04:02PM 40.2847 -87.1789 144° Southeast 442 509 24,300 900 Climbing Chicago Center
04:04PM 40.1828 -87.0861 145° Southeast 444 511 25,200 840 Climbing Chicago Center
04:04PM 40.1208 -87.0267 144° Southeast 445 512 25,700 900 Climbing Indianapolis Center
04:05PM 40.0231 -86.8767 130° Southeast 453 521 26,700 780 Climbing Indianapolis Center
04:06PM 39.9514 -86.7367 124° Southeast 461 531 27,400 660 Climbing Indianapolis Center
04:07PM 39.8797 -86.5981 124° Southeast 461 531 28,100 660 Climbing Indianapolis Center
04:10PM 39.6300 -86.3542 143° Southeast 439 505 29,900 660 Climbing Chicago Center
04:11PM 39.5192 -86.2811 153° Southeast 449 517 30,500 660 Climbing Chicago Center
04:11PM 39.4542 -86.2378 153° Southeast 449 517 31,000 780 Climbing Indianapolis Center
04:12PM 39.3431 -86.1656 153° Southeast 449 517 31,800 600 Climbing Indianapolis Center
04:14PM 39.1208 -86.0222 158° South 449 517 33,000 360 Climbing Indianapolis Center
04:15PM 39.0067 -85.9472 153° Southeast 455 524 33,000  Level Indianapolis Center
04:16PM 38.8669 -85.8594 154° Southeast 465 535 33,000  Level Indianapolis Center
04:19PM 38.6397 -85.7150 157° South 457 526 33,000  Level Indianapolis Center
04:20PM 38.5333 -85.6483 154° Southeast 456 525 33,000  Level Indianapolis Center
04:22PM 38.2825 -85.4894 154° Southeast 456 525 33,000  Level Indianapolis Center
04:23PM 38.1686 -85.4178 154° Southeast 456 525 33,000 -360 Level Indianapolis Center
04:24PM 38.0542 -85.3456 154° Southeast 456 525 32,300 -780 Descending Indianapolis Center
04:25PM 37.9403 -85.2753 154° Southeast 456 525 31,400 -480 Descending Indianapolis Center
04:27PM 37.7094 -85.1497 157° South 431 496 31,000 -180 Descending Indianapolis Center
04:28PM 37.5958 -85.0975 160° South 432 497 31,000 -300 Level Indianapolis Center
04:29PM 37.4803 -85.0447 160° South 435 501 30,500 -840 Descending Indianapolis Center
04:31PM 37.2489 -84.9464 142° Southeast 436 502 28,500 -1,020 Descending Indianapolis Center
04:32PM 37.1294 -84.8969 162° South 446 513 27,500 -1,080 Descending Indianapolis Center
04:33PM 36.9847 -84.8394 162° South 471 542 26,400 -1,320 Descending Indianapolis Center
04:34PM 36.8697 -84.7444 147° Southeast 485 558 24,800 -2,160 Descending Indianapolis Center
04:36PM 36.6597 -84.5978 151° Southeast 480 552 20,300 -2,460 Descending Atlanta Center
04:37PM 36.5578 -84.5244 150° Southeast 459 528 17,800 -2,340 Descending Atlanta Center
04:38PM 36.4358 -84.4344 149° Southeast 425 489 15,100 -2,220 Descending Indianapolis Center
04:39PM 36.3364 -84.3642 150° Southeast 414 476 12,800 -1,980 Descending Indianapolis Center
04:40PM 36.2242 -84.2839 150° Southeast 397 457 11,100 -1,500 Descending Indianapolis Center
04:42PM 36.0706 -84.2036 152° Southeast 294 338 8,300 -1,260 Descending Indianapolis Center
04:43PM 36.0269 -84.1903 166° South 296 341 7,700 -1,440 Descending Atlanta Center
04:44PM 35.9539 -84.1669 166° South 278 320 5,900 -1,800 Descending Atlanta Center
04:45PM 35.8808 -84.1336 160° South 278 320 4,100 -1,320 Descending Atlanta Center
04:47PM 35.7850 -84.0231 137° Southeast 191 220 1,500 -1,080 Descending Indianapolis Center
04:48PM 35.8017 -84.0003 48° Northeast 119 137 900 -1,140 Descending Atlanta Center